createdAt,value
2023-03-21T00:00:42.472Z,76.68
2023-03-21T00:03:09.246Z,68.90
2023-03-21T00:05:49.762Z,73.72
2023-03-21T00:08:16.694Z,76.03
2023-03-21T00:10:44.062Z,76.13
2023-03-21T00:13:15.451Z,80.50
2023-03-21T00:16:06.683Z,75.15
2023-03-21T00:18:42.517Z,73.75
2023-03-21T00:24:00.970Z,73.60
2023-03-21T00:26:28.017Z,77.63
2023-03-21T00:28:54.799Z,74.38
2023-03-21T00:31:21.547Z,77.53
2023-03-21T00:33:48.456Z,77.53
2023-03-21T00:36:16.038Z,78.43
2023-03-21T00:38:43.189Z,76.25
2023-03-21T00:41:25.886Z,76.95
2023-03-21T00:43:58.329Z,79.32
2023-03-21T00:46:27.604Z,86.95
2023-03-21T00:48:56.981Z,79.45
2023-03-21T00:51:27.072Z,82.10
2023-03-21T00:53:56.035Z,79.55
2023-03-21T00:56:23.238Z,73.95
2023-03-21T00:58:51.274Z,80.50
2023-03-21T01:01:18.662Z,80.97
2023-03-21T01:03:48.022Z,84.43
2023-03-21T01:06:19.273Z,72.85
2023-03-21T01:08:52.574Z,81.65
2023-03-21T01:11:22.774Z,81.25
2023-03-21T01:14:20.918Z,84.93
2023-03-21T01:16:37.161Z,81.20
2023-03-21T01:19:09.258Z,77.40
2023-03-21T01:21:41.615Z,80.32
2023-03-21T01:24:08.827Z,76.88
2023-03-21T01:26:37.449Z,78.68
2023-03-21T01:29:05.597Z,76.80
2023-03-21T01:31:32.433Z,79.80
2023-03-21T01:33:59.283Z,79.60
2023-03-21T01:36:26.878Z,79.70
2023-03-21T01:38:54.461Z,81.63
2023-03-21T01:41:22.058Z,79.82
2023-03-21T01:43:49.851Z,80.07
2023-03-21T01:46:54.498Z,74.07
2023-03-21T01:49:35.956Z,79.47
2023-03-21T01:54:46.797Z,79.15
2023-03-21T01:57:22.001Z,85.15
2023-03-21T01:59:52.556Z,78.95
2023-03-21T02:02:24.452Z,74.78
2023-03-21T02:04:56.165Z,82.63
2023-03-21T02:07:29.597Z,73.97
2023-03-21T02:09:58.132Z,85.25
2023-03-21T02:12:26.696Z,74.53
2023-03-21T02:14:55.525Z,79.93
2023-03-21T02:17:33.132Z,79.90
2023-03-21T02:19:59.801Z,78.00
2023-03-21T02:22:48.175Z,78.68
2023-03-21T02:25:22.588Z,79.03
2023-03-21T02:28:08.009Z,79.13
2023-03-21T02:30:59.490Z,75.47
2023-03-21T02:34:05.306Z,80.13
2023-03-21T02:36:43.847Z,82.25
2023-03-21T02:39:25.569Z,84.88
2023-03-21T02:42:07.656Z,81.78
2023-03-21T02:44:43.670Z,84.72
2023-03-21T02:47:26.463Z,80.40
2023-03-21T02:50:03.644Z,78.82
2023-03-21T02:52:39.208Z,84.15
2023-03-21T02:55:13.903Z,80.80
2023-03-21T02:57:43.928Z,86.88
2023-03-21T03:00:17.848Z,76.60
2023-03-21T03:02:45.987Z,85.45
2023-03-21T03:05:21.323Z,86.80
2023-03-21T03:10:48.433Z,83.43
2023-03-21T03:13:51.019Z,84.57
2023-03-21T03:16:30.110Z,83.80
2023-03-21T03:19:01.303Z,83.78
2023-03-21T03:21:39.601Z,82.55
2023-03-21T03:24:09.356Z,89.70
2023-03-21T03:26:46.878Z,84.07
2023-03-21T03:29:16.740Z,85.78
2023-03-21T03:31:56.864Z,83.20
2023-03-21T03:34:28.238Z,83.53
2023-03-21T03:36:59.723Z,83.80
2023-03-21T03:39:41.416Z,89.43
2023-03-21T03:42:27.460Z,84.82
2023-03-21T03:44:56.483Z,84.70
2023-03-21T03:47:36.123Z,80.68
2023-03-21T03:50:20.298Z,87.82
2023-03-21T03:52:57.010Z,88.88
2023-03-21T03:55:27.278Z,81.05
2023-03-21T03:57:55.562Z,89.38
2023-03-21T04:00:22.289Z,85.05
2023-03-21T04:02:49.155Z,85.65
2023-03-21T04:05:20.995Z,91.82
2023-03-21T04:07:50.968Z,87.32
2023-03-21T04:10:18.740Z,98.65
2023-03-21T04:12:45.718Z,87.05
2023-03-21T04:15:12.862Z,91.22
2023-03-21T04:17:40.069Z,87.20
2023-03-21T04:20:12.308Z,91.40
2023-03-21T04:22:43.491Z,79.78
2023-03-21T04:25:10.599Z,91.15
2023-03-21T04:27:37.586Z,94.30
2023-03-21T04:30:06.100Z,95.82
2023-03-21T04:32:33.913Z,89.05
2023-03-21T04:35:01.039Z,91.40
2023-03-21T04:37:28.061Z,93.82
2023-03-21T04:39:54.854Z,95.55
2023-03-21T04:42:21.794Z,97.00
2023-03-21T04:44:49.378Z,88.32
2023-03-21T04:47:16.965Z,80.55
2023-03-21T04:49:43.873Z,94.45
2023-03-21T04:52:10.888Z,91.28
2023-03-21T04:54:37.667Z,86.07
2023-03-21T04:57:04.789Z,91.55
2023-03-21T04:59:31.770Z,91.65
2023-03-21T05:01:58.692Z,89.55
2023-03-21T05:04:27.464Z,94.80
2023-03-21T05:06:55.963Z,97.05
2023-03-21T05:09:23.267Z,88.25
2023-03-21T05:11:50.607Z,88.10
2023-03-21T05:14:20.917Z,95.03
2023-03-21T05:16:53.329Z,93.18
2023-03-21T05:19:23.077Z,94.13
2023-03-21T05:21:50.436Z,88.38
2023-03-21T05:24:22.421Z,93.25
2023-03-21T05:26:52.610Z,95.40
2023-03-21T05:29:19.762Z,96.50
2023-03-21T05:31:46.849Z,95.25
2023-03-21T05:34:14.300Z,98.43
2023-03-21T05:36:40.990Z,92.57
2023-03-21T05:39:07.751Z,102.22
2023-03-21T05:41:34.509Z,94.53
2023-03-21T05:44:01.253Z,96.47
2023-03-21T05:46:28.056Z,96.95
2023-03-21T05:48:54.866Z,96.57
2023-03-21T05:51:21.630Z,96.75
2023-03-21T05:53:48.833Z,96.60
2023-03-21T05:56:16.480Z,96.10
2023-03-21T05:58:43.315Z,99.90
2023-03-21T06:01:10.479Z,94.38
2023-03-21T06:03:37.347Z,102.95
2023-03-21T06:06:04.447Z,97.75
2023-03-21T06:08:32.169Z,103.53
2023-03-21T06:10:59.085Z,109.30
2023-03-21T06:13:25.904Z,103.97
2023-03-21T06:15:52.632Z,97.72
2023-03-21T06:18:19.465Z,110.57
2023-03-21T06:20:46.309Z,100.75
2023-03-21T06:23:13.054Z,96.03
2023-03-21T06:25:40.236Z,97.07
2023-03-21T06:28:07.082Z,103.85
2023-03-21T06:30:33.838Z,99.75
2023-03-21T06:33:00.922Z,102.57
2023-03-21T06:35:27.685Z,105.70
2023-03-21T06:37:54.671Z,106.55
2023-03-21T06:40:21.584Z,102.05
2023-03-21T06:42:48.305Z,99.30
2023-03-21T06:45:15.436Z,105.07
2023-03-21T06:47:42.270Z,95.80
2023-03-21T06:50:10.786Z,105.18
2023-03-21T06:52:38.829Z,102.32
2023-03-21T06:55:06.003Z,107.22
2023-03-21T06:57:32.743Z,111.00
2023-03-21T06:59:59.461Z,113.55
2023-03-21T07:02:26.737Z,107.75
2023-03-21T07:04:54.072Z,109.70
2023-03-21T07:07:26.023Z,126.25
2023-03-21T07:09:52.940Z,105.35
2023-03-21T07:12:19.606Z,107.38
2023-03-21T07:14:46.297Z,105.75
2023-03-21T07:17:13.075Z,109.60
2023-03-21T07:19:39.951Z,113.97
2023-03-21T07:22:06.700Z,111.45
2023-03-21T07:24:33.485Z,113.78
2023-03-21T07:27:00.335Z,107.47
2023-03-21T07:29:27.115Z,108.80
2023-03-21T07:31:54.200Z,117.53
2023-03-21T07:34:20.922Z,117.10
2023-03-21T07:36:47.800Z,103.68
2023-03-21T07:39:14.597Z,115.40
2023-03-21T07:41:41.352Z,107.63
2023-03-21T07:44:08.174Z,106.32
2023-03-21T07:46:34.867Z,117.65
2023-03-21T07:49:01.668Z,117.82
2023-03-21T07:51:28.349Z,124.28
2023-03-21T07:53:55.194Z,124.53
2023-03-21T07:56:21.964Z,113.93
2023-03-21T07:58:48.777Z,116.32
2023-03-21T08:01:15.795Z,113.35
2023-03-21T08:03:43.418Z,115.05
2023-03-21T08:06:10.814Z,116.53
2023-03-21T08:08:37.707Z,117.00
2023-03-21T08:11:05.258Z,120.35
2023-03-21T08:13:33.247Z,129.10
2023-03-21T08:16:00.089Z,119.05
2023-03-21T08:18:26.927Z,118.30
2023-03-21T08:20:55.652Z,117.00
2023-03-21T08:23:23.627Z,123.00
2023-03-21T08:25:56.893Z,117.85
2023-03-21T08:28:23.838Z,121.15
2023-03-21T08:30:51.143Z,125.25
2023-03-21T08:33:18.849Z,122.55
2023-03-21T08:35:46.680Z,124.45
2023-03-21T08:38:14.213Z,116.57
2023-03-21T08:40:41.460Z,124.55
2023-03-21T08:43:08.343Z,121.40
2023-03-21T08:45:35.153Z,117.50
2023-03-21T08:48:02.021Z,120.90
2023-03-21T08:50:31.622Z,113.60
2023-03-21T08:52:58.492Z,111.25
2023-03-21T08:55:25.579Z,122.63
2023-03-21T08:57:52.334Z,122.80
2023-03-21T09:00:20.872Z,114.55
2023-03-21T09:02:51.439Z,117.28
2023-03-21T09:05:18.693Z,113.07
2023-03-21T09:07:45.892Z,115.82
2023-03-21T09:10:21.001Z,117.25
2023-03-21T09:12:50.493Z,108.20
2023-03-21T09:15:20.190Z,112.07
2023-03-21T09:17:52.675Z,115.65
2023-03-21T09:20:25.944Z,117.00
2023-03-21T09:22:53.334Z,110.85
2023-03-21T09:25:21.155Z,115.95
2023-03-21T09:27:48.384Z,114.72
2023-03-21T09:30:20.813Z,123.15
2023-03-21T09:32:49.574Z,116.63
2023-03-21T09:35:18.861Z,115.45
2023-03-21T09:37:49.937Z,116.65
2023-03-21T09:40:31.241Z,110.68
2023-03-21T09:43:06.965Z,105.30
2023-03-21T09:45:38.487Z,109.10
2023-03-21T09:48:07.846Z,108.68
2023-03-21T09:50:37.722Z,99.53
2023-03-21T09:53:17.640Z,106.05
2023-03-21T09:55:44.539Z,92.72
2023-03-21T09:58:20.576Z,109.07
2023-03-21T10:00:56.522Z,105.07
2023-03-21T10:03:29.324Z,107.10
2023-03-21T10:06:01.559Z,110.50
2023-03-21T10:08:41.192Z,99.45
2023-03-21T10:11:13.848Z,112.75
2023-03-21T10:13:54.597Z,102.88
2023-03-21T10:16:41.483Z,103.53
2023-03-21T10:19:13.992Z,96.95
2023-03-21T10:22:03.359Z,93.50
2023-03-21T10:24:33.854Z,93.38
2023-03-21T10:27:01.688Z,96.85
2023-03-21T10:29:42.391Z,83.53
2023-03-21T10:32:15.292Z,76.20
2023-03-21T10:37:24.280Z,72.28
2023-03-21T10:39:52.840Z,79.15
2023-03-21T10:42:37.537Z,69.80
2023-03-21T10:45:16.515Z,69.03
2023-03-21T10:47:44.174Z,65.57
2023-03-21T10:50:17.666Z,60.85
2023-03-21T10:52:53.277Z,59.00
2023-03-21T10:55:31.292Z,57.70
2023-03-21T10:58:13.476Z,68.95
2023-03-21T11:00:43.347Z,69.30
2023-03-21T11:03:38.489Z,55.50
2023-03-21T11:06:12.334Z,45.05
2023-03-21T11:08:48.966Z,45.15
2023-03-21T11:11:58.647Z,37.28
2023-03-21T11:14:34.026Z,40.08
2023-03-21T11:19:32.802Z,44.00
2023-03-21T11:22:06.074Z,51.80
2023-03-21T11:24:35.385Z,52.45
2023-03-21T11:27:07.545Z,50.70
2023-03-21T11:29:55.269Z,53.15
2023-03-21T11:32:25.194Z,51.35
2023-03-21T11:34:58.822Z,49.92
2023-03-21T11:37:38.664Z,53.83
2023-03-21T11:40:07.966Z,55.28
2023-03-21T11:42:43.693Z,52.05
2023-03-21T11:45:18.349Z,50.00
2023-03-21T11:47:47.228Z,47.58
2023-03-21T11:50:16.755Z,43.83
2023-03-21T11:52:57.528Z,48.13
2023-03-21T11:55:38.605Z,50.65
2023-03-21T11:58:14.985Z,41.60
2023-03-21T12:00:57.667Z,47.78
2023-03-21T12:03:48.772Z,42.78
2023-03-21T12:06:32.850Z,45.95
2023-03-21T12:09:12.500Z,36.58
2023-03-21T12:12:05.171Z,44.53
2023-03-21T12:14:37.880Z,37.63
2023-03-21T12:17:22.611Z,37.85
2023-03-21T12:20:11.145Z,42.13
2023-03-21T12:22:40.905Z,38.13
2023-03-21T12:25:19.407Z,32.75
2023-03-21T12:28:15.266Z,36.47
2023-03-21T12:31:18.701Z,32.10
2023-03-21T12:33:57.549Z,33.40
2023-03-21T12:36:41.985Z,31.30
2023-03-21T12:39:14.228Z,30.03
2023-03-21T12:41:51.863Z,27.90
2023-03-21T12:44:23.809Z,23.13
2023-03-21T12:46:54.214Z,23.45
2023-03-21T12:49:21.120Z,29.42
2023-03-21T12:51:51.795Z,24.55
2023-03-21T12:54:42.845Z,22.10
2023-03-21T12:57:15.498Z,20.15
2023-03-21T13:00:13.489Z,25.02
2023-03-21T13:02:54.973Z,22.77
2023-03-21T13:05:33.003Z,20.98
2023-03-21T13:08:11.983Z,24.83
2023-03-21T13:10:41.644Z,19.05
2023-03-21T13:13:19.687Z,27.17
2023-03-21T13:16:24.182Z,22.85
2023-03-21T13:19:03.069Z,23.17
2023-03-21T13:21:32.764Z,26.20
2023-03-21T13:24:22.823Z,20.20
2023-03-21T13:26:55.669Z,25.05
2023-03-21T13:29:28.721Z,23.75
2023-03-21T13:31:59.360Z,19.73
2023-03-21T13:34:26.896Z,26.83
2023-03-21T13:36:56.976Z,25.42
2023-03-21T13:39:29.101Z,21.83
2023-03-21T13:42:05.596Z,21.98
2023-03-21T13:44:55.315Z,24.13
2023-03-21T13:47:52.562Z,27.20
2023-03-21T13:50:28.495Z,18.20
2023-03-21T13:53:09.910Z,24.75
2023-03-21T13:55:41.818Z,29.33
2023-03-21T13:58:23.798Z,27.05
2023-03-21T14:01:20.584Z,26.02
2023-03-21T14:03:48.081Z,28.55
2023-03-21T14:06:17.665Z,30.95
2023-03-21T14:08:47.497Z,29.38
2023-03-21T14:11:18.813Z,25.35
2023-03-21T14:13:51.393Z,26.95
2023-03-21T14:16:20.390Z,22.15
2023-03-21T14:19:01.515Z,24.15
2023-03-21T14:21:31.613Z,25.20
2023-03-21T14:24:06.325Z,17.63
2023-03-21T14:26:54.320Z,18.13
2023-03-21T14:29:34.995Z,21.40
2023-03-21T14:32:03.038Z,20.58
2023-03-21T14:34:32.863Z,19.08
2023-03-21T14:36:59.644Z,34.58
2023-03-21T14:39:32.151Z,28.73
2023-03-21T14:42:11.415Z,21.90
2023-03-21T14:44:53.933Z,24.40
2023-03-21T14:47:23.170Z,17.45
2023-03-21T14:49:50.806Z,21.73
2023-03-21T14:52:25.342Z,25.30
2023-03-21T14:54:53.818Z,27.63
2023-03-21T14:57:24.868Z,24.00
2023-03-21T14:59:54.864Z,23.52
2023-03-21T15:02:27.037Z,19.92
2023-03-21T15:04:57.292Z,19.25
2023-03-21T15:07:32.633Z,18.85
2023-03-21T15:10:08.998Z,22.65
2023-03-21T15:12:35.826Z,20.45
2023-03-21T15:15:03.231Z,21.67
2023-03-21T15:17:30.640Z,20.45
2023-03-21T15:19:57.440Z,24.70
2023-03-21T15:22:38.917Z,19.40
2023-03-21T15:25:09.177Z,24.15
2023-03-21T15:27:42.644Z,21.02
2023-03-21T15:30:29.805Z,20.70
2023-03-21T15:32:58.695Z,23.95
2023-03-21T15:35:54.168Z,21.52
2023-03-21T15:38:32.752Z,18.65
2023-03-21T15:41:19.021Z,22.25
2023-03-21T15:44:05.580Z,19.38
2023-03-21T15:46:46.264Z,23.10
2023-03-21T15:49:13.124Z,21.65
2023-03-21T15:51:44.002Z,18.90
2023-03-21T15:54:33.314Z,23.88
2023-03-21T15:57:04.750Z,21.45
2023-03-21T15:59:35.745Z,21.80
2023-03-21T16:02:04.303Z,22.17
2023-03-21T16:04:31.317Z,21.27
2023-03-21T16:07:04.666Z,23.02
2023-03-21T16:09:49.468Z,22.88
2023-03-21T16:12:18.753Z,19.42
2023-03-21T16:14:47.311Z,22.00
2023-03-21T16:17:38.013Z,26.50
2023-03-21T16:20:32.710Z,26.40
2023-03-21T16:22:59.592Z,28.48
2023-03-21T16:25:27.064Z,30.50
2023-03-21T16:27:53.827Z,26.13
2023-03-21T16:30:21.626Z,30.52
2023-03-21T16:32:50.502Z,25.58
2023-03-21T16:35:17.684Z,25.85
2023-03-21T16:37:45.123Z,27.38
2023-03-21T16:40:35.911Z,37.88
2023-03-21T16:43:04.074Z,27.40
2023-03-21T16:45:31.047Z,31.05
2023-03-21T16:47:58.286Z,42.15
2023-03-21T16:50:32.225Z,39.35
2023-03-21T16:52:59.454Z,36.85
2023-03-21T16:55:26.665Z,24.42
2023-03-21T16:57:54.096Z,28.98
2023-03-21T17:00:24.550Z,33.92
2023-03-21T17:02:55.032Z,35.90
2023-03-21T17:05:26.911Z,33.55
2023-03-21T17:07:54.793Z,32.90
2023-03-21T17:10:25.706Z,28.02
2023-03-21T17:12:52.669Z,35.35
2023-03-21T17:15:20.690Z,29.40
2023-03-21T17:17:50.016Z,30.85
2023-03-21T17:20:21.249Z,31.73
2023-03-21T17:22:49.231Z,34.50
2023-03-21T17:25:17.100Z,33.65
2023-03-21T17:27:44.578Z,29.20
2023-03-21T17:30:23.662Z,27.25
2023-03-21T17:32:51.810Z,38.20
2023-03-21T17:35:19.410Z,35.72
2023-03-21T17:37:50.463Z,31.27
2023-03-21T17:40:25.829Z,29.73
2023-03-21T17:42:53.350Z,28.67
2023-03-21T17:45:20.211Z,26.90
2023-03-21T17:47:47.174Z,30.35
2023-03-21T17:50:17.299Z,29.92
2023-03-21T17:52:44.049Z,34.42
2023-03-21T17:55:11.171Z,46.60
2023-03-21T17:57:38.376Z,36.53
2023-03-21T18:00:12.590Z,47.30
2023-03-21T18:02:40.378Z,42.78
2023-03-21T18:05:08.500Z,46.80
2023-03-21T18:08:07.639Z,48.25
2023-03-21T18:10:26.899Z,40.95
2023-03-21T18:12:56.074Z,43.35
2023-03-21T18:15:24.526Z,43.70
2023-03-21T18:17:51.599Z,51.30
2023-03-21T18:20:21.076Z,44.83
2023-03-21T18:22:48.000Z,49.58
2023-03-21T18:25:16.541Z,44.20
2023-03-21T18:28:06.286Z,45.53
2023-03-21T18:30:50.404Z,46.83
2023-03-21T18:33:18.036Z,47.97
2023-03-21T18:35:46.369Z,41.97
2023-03-21T18:38:13.796Z,46.03
2023-03-21T18:40:41.275Z,41.38
2023-03-21T18:43:56.015Z,48.05
2023-03-21T18:45:55.438Z,48.05
2023-03-21T18:48:22.674Z,51.80
2023-03-21T18:50:49.460Z,48.38
2023-03-21T18:53:16.451Z,50.40
2023-03-21T18:55:46.564Z,51.92
2023-03-21T18:58:14.577Z,60.92
2023-03-21T19:00:42.819Z,53.40
2023-03-21T19:03:21.812Z,59.17
2023-03-21T19:05:59.404Z,54.47
2023-03-21T19:08:26.476Z,48.72
2023-03-21T19:10:53.301Z,51.33
2023-03-21T19:13:20.110Z,52.88
2023-03-21T19:15:49.581Z,54.53
2023-03-21T19:21:04.231Z,47.35
2023-03-21T19:23:46.841Z,45.97
2023-03-21T19:26:18.114Z,42.90
2023-03-21T19:28:44.895Z,48.80
2023-03-21T19:31:12.038Z,54.05
2023-03-21T19:33:39.148Z,44.85
2023-03-21T19:36:17.655Z,47.95
2023-03-21T19:38:47.932Z,51.22
2023-03-21T19:41:14.719Z,42.80
2023-03-21T19:43:52.806Z,46.13
2023-03-21T19:46:24.881Z,49.90
2023-03-21T19:48:56.206Z,41.95
2023-03-21T19:51:28.690Z,41.63
2023-03-21T19:53:57.453Z,43.58
2023-03-21T19:56:27.034Z,48.20
2023-03-21T19:58:55.502Z,41.75
2023-03-21T20:01:23.125Z,42.47
2023-03-21T20:03:50.012Z,41.15
2023-03-21T20:06:17.178Z,44.08
2023-03-21T20:11:31.412Z,40.58
2023-03-21T20:13:59.869Z,43.70
2023-03-21T20:16:34.237Z,45.33
2023-03-21T20:19:01.683Z,44.58
2023-03-21T20:21:34.839Z,42.90
2023-03-21T20:24:07.410Z,44.33
2023-03-21T20:26:34.428Z,44.25
2023-03-21T20:29:37.279Z,45.22
2023-03-21T20:31:49.994Z,50.35
2023-03-21T20:34:16.774Z,45.35
2023-03-21T20:36:43.898Z,38.20
2023-03-21T20:39:11.120Z,41.42
2023-03-21T20:41:38.225Z,48.13
2023-03-21T20:46:52.134Z,48.03
2023-03-21T20:49:23.030Z,47.20
2023-03-21T20:54:37.296Z,46.10
2023-03-21T20:57:05.123Z,42.72
2023-03-21T20:59:31.884Z,48.28
2023-03-21T21:01:58.827Z,47.75
2023-03-21T21:04:46.755Z,43.97
2023-03-21T21:07:17.737Z,52.00
2023-03-21T21:09:45.594Z,53.00
2023-03-21T21:12:14.062Z,48.55
2023-03-21T21:14:41.941Z,47.30
2023-03-21T21:17:46.674Z,48.13
2023-03-21T21:19:56.292Z,50.58
2023-03-21T21:22:23.018Z,51.60
2023-03-21T21:24:49.937Z,45.45
2023-03-21T21:27:16.911Z,47.13
2023-03-21T21:29:43.707Z,47.53
2023-03-21T21:32:11.243Z,48.47
2023-03-21T21:34:38.300Z,50.45
2023-03-21T21:37:05.251Z,58.00
2023-03-21T21:39:37.844Z,45.50
2023-03-21T21:42:05.427Z,43.22
2023-03-21T21:44:32.313Z,51.55
2023-03-21T21:46:59.509Z,54.25
2023-03-21T21:49:26.976Z,46.28
2023-03-21T21:51:53.799Z,48.97
2023-03-21T21:54:20.554Z,47.97
2023-03-21T21:56:54.345Z,48.22
2023-03-21T21:59:22.179Z,48.35
2023-03-21T22:01:51.202Z,55.95
2023-03-21T22:04:18.886Z,48.63
2023-03-21T22:06:47.561Z,48.17
2023-03-21T22:09:15.650Z,50.05
2023-03-21T22:11:42.725Z,54.20
2023-03-21T22:14:09.516Z,51.70
2023-03-21T22:16:36.335Z,57.13
2023-03-21T22:19:03.412Z,52.17
2023-03-21T22:21:30.223Z,50.17
2023-03-21T22:23:57.044Z,48.38
2023-03-21T22:26:23.854Z,52.60
2023-03-21T22:28:50.675Z,49.60
2023-03-21T22:31:17.929Z,50.50
2023-03-21T22:33:45.739Z,51.65
2023-03-21T22:36:12.702Z,50.25
2023-03-21T22:38:41.726Z,53.67
2023-03-21T22:41:08.513Z,51.40
2023-03-21T22:43:35.429Z,48.60
2023-03-21T22:46:03.446Z,45.85
2023-03-21T22:48:30.844Z,52.13
2023-03-21T22:51:00.809Z,48.83
2023-03-21T22:53:27.918Z,49.10
2023-03-21T22:55:54.977Z,60.65
2023-03-21T22:58:22.491Z,50.45
2023-03-21T23:00:49.349Z,46.38
2023-03-21T23:03:17.009Z,50.50
2023-03-21T23:05:44.924Z,47.67
2023-03-21T23:08:12.680Z,53.17
2023-03-21T23:10:41.387Z,51.55
2023-03-21T23:13:08.225Z,53.53
2023-03-21T23:15:35.262Z,52.70
2023-03-21T23:18:02.242Z,53.13
2023-03-21T23:20:28.948Z,54.15
2023-03-21T23:22:55.689Z,49.65
2023-03-21T23:25:25.094Z,52.22
2023-03-21T23:27:51.894Z,55.15
2023-03-21T23:30:18.811Z,50.70
2023-03-21T23:32:45.693Z,52.58
2023-03-21T23:35:12.818Z,53.67
2023-03-21T23:37:42.373Z,55.95
2023-03-21T23:40:10.405Z,52.17
2023-03-21T23:42:37.253Z,49.60
2023-03-21T23:45:04.856Z,48.90
2023-03-21T23:47:31.534Z,58.38
2023-03-21T23:49:58.304Z,55.53
2023-03-21T23:52:25.245Z,62.25
2023-03-21T23:54:52.297Z,53.60
2023-03-21T23:57:19.125Z,49.50
2023-03-21T23:59:47.026Z,52.60
